createdAt,value
2023-05-06T00:00:43.530Z,99.99
2023-05-06T00:01:43.508Z,99.99
2023-05-06T00:02:43.576Z,99.99
2023-05-06T00:03:43.783Z,99.99
2023-05-06T00:04:43.578Z,99.99
2023-05-06T00:05:43.508Z,99.99
2023-05-06T00:06:43.468Z,99.99
2023-05-06T00:07:43.455Z,99.99
2023-05-06T00:08:43.453Z,99.99
2023-05-06T00:09:43.429Z,99.99
2023-05-06T00:10:43.447Z,99.99
2023-05-06T00:11:43.404Z,99.99
2023-05-06T00:12:43.421Z,99.99
2023-05-06T00:13:43.390Z,99.99
2023-05-06T00:14:43.374Z,99.99
2023-05-06T00:15:43.363Z,99.99
2023-05-06T00:16:43.381Z,99.99
2023-05-06T00:17:43.414Z,99.99
2023-05-06T00:18:43.345Z,99.99
2023-05-06T00:19:43.325Z,99.99
2023-05-06T00:20:43.311Z,99.99
2023-05-06T00:21:43.298Z,99.99
2023-05-06T00:22:43.295Z,99.99
2023-05-06T00:23:43.273Z,99.99
2023-05-06T00:24:43.264Z,99.99
2023-05-06T00:25:43.253Z,99.99
2023-05-06T00:26:43.245Z,99.99
2023-05-06T00:27:43.230Z,99.99
2023-05-06T00:28:43.233Z,99.99
2023-05-06T00:29:43.205Z,99.99
2023-05-06T00:30:43.208Z,99.99
2023-05-06T00:31:43.209Z,99.99
2023-05-06T00:32:43.240Z,99.99
2023-05-06T00:33:43.163Z,99.99
2023-05-06T00:34:43.162Z,99.99
2023-05-06T00:35:43.147Z,99.99
2023-05-06T00:36:43.154Z,99.99
2023-05-06T00:37:43.123Z,99.99
2023-05-06T00:38:43.111Z,99.99
2023-05-06T00:39:43.100Z,99.99
2023-05-06T00:40:43.080Z,99.99
2023-05-06T00:41:43.093Z,99.99
2023-05-06T00:42:43.064Z,99.99
2023-05-06T00:43:43.079Z,99.99
2023-05-06T00:44:43.052Z,99.99
2023-05-06T00:45:43.073Z,99.99
2023-05-06T00:46:43.029Z,99.99
2023-05-06T00:47:43.049Z,99.99
2023-05-06T00:48:43.008Z,99.99
2023-05-06T00:49:43.028Z,99.99
2023-05-06T00:50:42.982Z,99.99
2023-05-06T00:51:42.972Z,99.99
2023-05-06T00:52:42.959Z,99.99
2023-05-06T00:53:42.942Z,99.99
2023-05-06T00:54:42.928Z,99.99
2023-05-06T00:55:42.932Z,99.99
2023-05-06T00:56:42.907Z,99.99
2023-05-06T00:57:42.900Z,99.99
2023-05-06T00:58:42.888Z,99.99
2023-05-06T00:59:42.886Z,99.99
2023-05-06T01:00:42.876Z,99.99
2023-05-06T01:01:42.876Z,99.99
2023-05-06T01:02:47.424Z,99.99
2023-05-06T01:03:42.938Z,99.99
2023-05-06T01:04:42.877Z,99.99
2023-05-06T01:05:42.815Z,99.99
2023-05-06T01:06:42.797Z,99.99
2023-05-06T01:07:42.800Z,99.99
2023-05-06T01:08:42.788Z,99.99
2023-05-06T01:09:42.787Z,99.99
2023-05-06T01:10:42.753Z,99.99
2023-05-06T01:11:42.749Z,99.99
2023-05-06T01:12:42.769Z,99.99
2023-05-06T01:13:42.734Z,99.99
2023-05-06T01:14:42.717Z,99.99
2023-05-06T01:15:42.703Z,99.99
2023-05-06T01:16:42.717Z,99.99
2023-05-06T01:17:42.714Z,99.99
2023-05-06T01:18:42.678Z,99.99
2023-05-06T01:19:42.658Z,99.99
2023-05-06T01:20:42.653Z,99.99
2023-05-06T01:21:42.638Z,99.99
2023-05-06T01:22:42.631Z,99.99
2023-05-06T01:23:42.626Z,99.99
2023-05-06T01:24:42.621Z,99.99
2023-05-06T01:25:42.614Z,99.99
2023-05-06T01:26:42.579Z,99.99
2023-05-06T01:27:42.582Z,99.99
2023-05-06T01:28:42.570Z,99.99
2023-05-06T01:29:42.556Z,99.99
2023-05-06T01:30:42.550Z,99.99
2023-05-06T01:31:42.531Z,99.99
2023-05-06T01:32:42.565Z,99.99
2023-05-06T01:33:42.510Z,99.99
2023-05-06T01:34:42.504Z,99.99
2023-05-06T01:35:42.517Z,99.99
2023-05-06T01:36:42.480Z,99.99
2023-05-06T01:37:42.467Z,99.99
2023-05-06T01:38:42.457Z,99.99
2023-05-06T01:39:42.438Z,99.99
2023-05-06T01:40:42.431Z,99.99
2023-05-06T01:41:42.440Z,99.99
2023-05-06T01:42:42.420Z,99.99
2023-05-06T01:43:42.386Z,99.99
2023-05-06T01:44:42.447Z,99.99
2023-05-06T01:45:42.375Z,99.99
2023-05-06T01:46:42.516Z,99.99
2023-05-06T01:47:42.421Z,99.99
2023-05-06T01:48:42.414Z,99.99
2023-05-06T01:49:42.389Z,99.99
2023-05-06T01:50:42.316Z,99.99
2023-05-06T01:51:42.311Z,99.99
2023-05-06T01:52:42.300Z,99.99
2023-05-06T01:53:42.287Z,99.99
2023-05-06T01:54:42.288Z,99.99
2023-05-06T01:55:42.274Z,99.99
2023-05-06T01:56:42.258Z,99.99
2023-05-06T01:57:42.242Z,99.99
2023-05-06T01:58:42.231Z,99.99
2023-05-06T01:59:42.229Z,99.99
2023-05-06T02:00:42.225Z,99.99
2023-05-06T02:01:42.227Z,99.99
2023-05-06T02:02:42.252Z,99.99
2023-05-06T02:03:42.273Z,99.99
2023-05-06T02:04:42.177Z,99.99
2023-05-06T02:05:42.159Z,99.99
2023-05-06T02:06:42.173Z,99.99
2023-05-06T02:07:42.122Z,99.99
2023-05-06T02:08:42.117Z,99.99
2023-05-06T02:09:42.111Z,99.99
2023-05-06T02:10:42.114Z,99.99
2023-05-06T02:11:42.081Z,99.99
2023-05-06T02:12:42.111Z,99.99
2023-05-06T02:13:42.061Z,99.99
2023-05-06T02:14:42.063Z,99.99
2023-05-06T02:15:42.040Z,99.99
2023-05-06T02:16:42.030Z,99.99
2023-05-06T02:17:42.039Z,99.99
2023-05-06T02:18:42.007Z,99.99
2023-05-06T02:19:42.037Z,99.99
2023-05-06T02:20:41.983Z,99.99
2023-05-06T02:21:41.968Z,99.99
2023-05-06T02:22:41.998Z,99.99
2023-05-06T02:23:41.956Z,99.99
2023-05-06T02:24:41.951Z,99.99
2023-05-06T02:25:41.928Z,99.99
2023-05-06T02:26:42.038Z,99.99
2023-05-06T02:27:41.913Z,99.99
2023-05-06T02:28:41.909Z,99.99
2023-05-06T02:29:41.885Z,99.99
2023-05-06T02:30:41.880Z,99.99
2023-05-06T02:31:41.927Z,99.99
2023-05-06T02:32:41.882Z,99.99
2023-05-06T02:33:41.855Z,99.99
2023-05-06T02:34:41.836Z,99.99
2023-05-06T02:35:41.810Z,99.99
2023-05-06T02:36:41.806Z,99.99
2023-05-06T02:37:41.799Z,99.99
2023-05-06T02:38:41.810Z,99.99
2023-05-06T02:39:41.781Z,99.99
2023-05-06T02:40:41.765Z,99.99
2023-05-06T02:41:41.746Z,99.99
2023-05-06T02:42:41.793Z,99.99
2023-05-06T02:43:41.730Z,99.99
2023-05-06T02:44:41.731Z,99.99
2023-05-06T02:45:41.724Z,99.99
2023-05-06T02:46:41.697Z,99.99
2023-05-06T02:47:41.744Z,99.99
2023-05-06T02:48:41.670Z,99.99
2023-05-06T02:49:41.657Z,99.99
2023-05-06T02:50:41.649Z,99.99
2023-05-06T02:51:41.649Z,99.99
2023-05-06T02:52:41.638Z,99.99
2023-05-06T02:53:41.612Z,99.99
2023-05-06T02:54:41.612Z,99.99
2023-05-06T02:55:41.590Z,99.99
2023-05-06T02:56:41.596Z,99.99
2023-05-06T02:57:41.576Z,99.99
2023-05-06T02:58:41.580Z,99.99
2023-05-06T02:59:41.544Z,99.99
2023-05-06T03:00:41.544Z,99.99
2023-05-06T03:01:41.556Z,99.99
2023-05-06T03:02:41.553Z,99.99
2023-05-06T03:03:41.500Z,99.99
2023-05-06T03:04:41.503Z,99.99
2023-05-06T03:05:41.481Z,99.99
2023-05-06T03:06:41.488Z,99.99
2023-05-06T03:07:41.477Z,99.99
2023-05-06T03:08:41.462Z,99.99
2023-05-06T03:09:41.439Z,99.99
2023-05-06T03:10:41.434Z,99.99
2023-05-06T03:11:41.421Z,99.99
2023-05-06T03:12:41.425Z,99.99
2023-05-06T03:13:41.388Z,99.99
2023-05-06T03:14:41.398Z,99.99
2023-05-06T03:15:41.381Z,99.99
2023-05-06T03:16:41.425Z,99.99
2023-05-06T03:17:41.480Z,99.99
2023-05-06T03:18:41.345Z,99.99
2023-05-06T03:19:41.324Z,99.99
2023-05-06T03:20:41.327Z,99.99
2023-05-06T03:21:41.390Z,99.99
2023-05-06T03:22:41.307Z,99.99
2023-05-06T03:23:41.275Z,99.99
2023-05-06T03:24:41.280Z,99.99
2023-05-06T03:25:41.278Z,99.99
2023-05-06T03:26:41.256Z,99.99
2023-05-06T03:27:41.233Z,99.99
2023-05-06T03:28:41.229Z,99.99
2023-05-06T03:29:41.233Z,99.99
2023-05-06T03:30:41.204Z,99.99
2023-05-06T03:31:41.201Z,99.99
2023-05-06T03:32:41.210Z,99.99
2023-05-06T03:33:41.173Z,99.99
2023-05-06T03:34:41.180Z,99.99
2023-05-06T03:35:41.160Z,99.99
2023-05-06T03:36:41.135Z,99.99
2023-05-06T03:37:41.128Z,99.99
2023-05-06T03:38:41.122Z,99.99
2023-05-06T03:39:41.122Z,99.99
2023-05-06T03:40:41.087Z,99.99
2023-05-06T03:41:41.080Z,99.99
2023-05-06T03:42:41.087Z,99.99
2023-05-06T03:43:41.077Z,99.99
2023-05-06T03:44:41.047Z,99.99
2023-05-06T03:45:41.040Z,99.99
2023-05-06T03:46:41.092Z,99.99
2023-05-06T03:47:41.052Z,99.99
2023-05-06T03:48:41.010Z,99.99
2023-05-06T03:49:40.992Z,99.99
2023-05-06T03:50:40.991Z,99.99
2023-05-06T03:51:40.975Z,99.99
2023-05-06T03:52:40.965Z,99.99
2023-05-06T03:53:40.962Z,99.99
2023-05-06T03:54:40.934Z,99.99
2023-05-06T03:55:40.924Z,99.99
2023-05-06T03:56:40.919Z,99.99
2023-05-06T03:57:40.912Z,99.99
2023-05-06T03:58:40.903Z,99.99
2023-05-06T03:59:40.884Z,99.99
2023-05-06T04:00:40.863Z,99.99
2023-05-06T04:01:40.890Z,99.99
2023-05-06T04:02:41.033Z,99.99
2023-05-06T04:03:40.964Z,99.99
2023-05-06T04:04:40.821Z,99.99
2023-05-06T04:05:40.821Z,99.99
2023-05-06T04:06:40.800Z,99.99
2023-05-06T04:07:40.807Z,99.99
2023-05-06T04:08:40.788Z,99.99
2023-05-06T04:09:40.766Z,99.99
2023-05-06T04:10:40.757Z,99.99
2023-05-06T04:11:40.760Z,99.99
2023-05-06T04:12:40.867Z,99.99
2023-05-06T04:13:40.727Z,99.99
2023-05-06T04:14:40.716Z,99.99
2023-05-06T04:15:40.709Z,99.99
2023-05-06T04:16:40.749Z,99.99
2023-05-06T04:17:40.714Z,99.99
2023-05-06T04:18:40.672Z,99.99
2023-05-06T04:19:40.657Z,99.99
2023-05-06T04:20:40.649Z,99.99
2023-05-06T04:21:40.647Z,99.99
2023-05-06T04:22:40.620Z,99.99
2023-05-06T04:23:40.620Z,99.99
2023-05-06T04:24:40.595Z,99.99
2023-05-06T04:25:40.605Z,99.99
2023-05-06T04:26:40.610Z,99.99
2023-05-06T04:27:40.571Z,99.99
2023-05-06T04:28:40.549Z,99.99
2023-05-06T04:29:40.548Z,99.99
2023-05-06T04:30:40.544Z,99.99
2023-05-06T04:31:40.592Z,99.99
2023-05-06T04:32:40.544Z,99.99
2023-05-06T04:33:40.507Z,99.99
2023-05-06T04:34:40.486Z,99.99
2023-05-06T04:35:40.494Z,99.99
2023-05-06T04:36:40.800Z,99.99
2023-05-06T04:37:40.462Z,99.99
2023-05-06T04:38:40.445Z,99.99
2023-05-06T04:39:40.446Z,99.99
2023-05-06T04:40:40.446Z,99.99
2023-05-06T04:41:40.415Z,99.99
2023-05-06T04:42:40.408Z,99.99
2023-05-06T04:43:40.396Z,99.99
2023-05-06T04:44:40.385Z,99.99
2023-05-06T04:45:40.446Z,99.99
2023-05-06T04:46:40.360Z,99.99
2023-05-06T04:47:40.422Z,99.99
2023-05-06T04:48:40.365Z,99.99
2023-05-06T04:49:40.343Z,99.99
2023-05-06T04:50:40.332Z,99.99
2023-05-06T04:51:40.309Z,99.99
2023-05-06T04:52:40.331Z,99.99
2023-05-06T04:53:40.300Z,99.99
2023-05-06T04:54:40.334Z,99.99
2023-05-06T04:55:40.276Z,99.99
2023-05-06T04:56:40.264Z,99.99
2023-05-06T04:57:40.246Z,99.99
2023-05-06T04:58:40.247Z,99.99
2023-05-06T04:59:40.243Z,99.99
2023-05-06T05:00:40.220Z,99.99
2023-05-06T05:01:40.253Z,99.99
2023-05-06T05:02:40.298Z,99.99
2023-05-06T05:03:40.227Z,99.99
2023-05-06T05:04:40.161Z,99.99
2023-05-06T05:05:40.156Z,99.99
2023-05-06T05:06:40.139Z,99.99
2023-05-06T05:07:40.187Z,99.99
2023-05-06T05:08:40.118Z,99.99
2023-05-06T05:09:40.115Z,99.99
2023-05-06T05:10:40.094Z,99.99
2023-05-06T05:11:40.096Z,99.99
2023-05-06T05:12:40.126Z,99.99
2023-05-06T05:13:40.067Z,99.99
2023-05-06T05:14:40.131Z,99.99
2023-05-06T05:15:40.139Z,99.99
2023-05-06T05:16:40.125Z,99.99
2023-05-06T05:17:40.044Z,99.99
2023-05-06T05:18:40.011Z,99.99
2023-05-06T05:19:40.002Z,99.99
2023-05-06T05:20:39.988Z,99.99
2023-05-06T05:21:39.992Z,99.99
2023-05-06T05:22:39.964Z,99.99
2023-05-06T05:23:39.958Z,99.99
2023-05-06T05:24:39.941Z,99.99
2023-05-06T05:25:39.944Z,99.99
2023-05-06T05:26:39.932Z,99.99
2023-05-06T05:27:39.909Z,99.99
2023-05-06T05:28:39.902Z,99.99
2023-05-06T05:29:39.889Z,99.99
2023-05-06T05:30:39.873Z,99.99
2023-05-06T05:31:39.969Z,99.99
2023-05-06T05:32:39.901Z,99.99
2023-05-06T05:33:39.943Z,99.99
2023-05-06T05:34:39.830Z,99.99
2023-05-06T05:35:39.836Z,99.99
2023-05-06T05:36:39.823Z,99.99
2023-05-06T05:37:39.823Z,99.99
2023-05-06T05:38:39.792Z,99.99
2023-05-06T05:39:39.787Z,99.99
2023-05-06T05:40:39.775Z,99.99
2023-05-06T05:41:39.758Z,99.99
2023-05-06T05:42:39.740Z,99.99
2023-05-06T05:43:39.734Z,99.99
2023-05-06T05:44:39.730Z,99.99
2023-05-06T05:45:39.723Z,99.99
2023-05-06T05:46:39.728Z,99.99
2023-05-06T05:47:39.761Z,99.99
2023-05-06T05:48:39.754Z,99.99
2023-05-06T05:49:39.668Z,99.99
2023-05-06T05:50:39.672Z,99.99
2023-05-06T05:51:39.647Z,99.99
2023-05-06T05:52:39.665Z,99.99
2023-05-06T05:53:39.618Z,99.99
2023-05-06T05:54:39.633Z,99.99
2023-05-06T05:55:39.609Z,99.99
2023-05-06T05:56:39.595Z,99.99
2023-05-06T05:57:39.593Z,99.99
2023-05-06T05:58:39.590Z,99.99
2023-05-06T05:59:39.568Z,99.99
2023-05-06T06:00:39.548Z,99.99
2023-05-06T06:01:39.534Z,99.99
2023-05-06T06:02:39.661Z,99.99
2023-05-06T06:03:39.709Z,99.99
2023-05-06T06:04:39.587Z,99.99
2023-05-06T06:05:39.486Z,99.99
2023-05-06T06:06:39.475Z,99.99
2023-05-06T06:07:39.482Z,99.99
2023-05-06T06:08:39.453Z,99.99
2023-05-06T06:09:39.454Z,99.99
2023-05-06T06:10:39.434Z,99.99
2023-05-06T06:11:39.417Z,99.99
2023-05-06T06:12:39.425Z,99.99
2023-05-06T06:13:39.411Z,99.99
2023-05-06T06:14:39.439Z,99.99
2023-05-06T06:15:39.373Z,99.99
2023-05-06T06:16:39.435Z,99.99
2023-05-06T06:17:39.395Z,99.99
2023-05-06T06:18:39.365Z,99.99
2023-05-06T06:19:39.325Z,99.99
2023-05-06T06:20:39.333Z,99.99
2023-05-06T06:21:39.302Z,99.99
2023-05-06T06:22:39.306Z,99.99
2023-05-06T06:23:39.294Z,99.99
2023-05-06T06:24:39.280Z,99.99
2023-05-06T06:25:39.272Z,99.99
2023-05-06T06:26:39.255Z,99.99
2023-05-06T06:27:39.259Z,99.99
2023-05-06T06:28:39.243Z,99.99
2023-05-06T06:29:39.220Z,99.99
2023-05-06T06:30:39.210Z,99.99
2023-05-06T06:31:40.698Z,99.99
2023-05-06T06:32:39.200Z,99.99
2023-05-06T06:33:39.181Z,99.99
2023-05-06T06:34:39.159Z,99.99
2023-05-06T06:35:39.161Z,99.99
2023-05-06T06:36:39.136Z,99.99
2023-05-06T06:37:39.144Z,99.99
2023-05-06T06:38:39.117Z,99.99
2023-05-06T06:39:39.130Z,99.99
2023-05-06T06:40:39.109Z,99.99
2023-05-06T06:41:39.098Z,99.99
2023-05-06T06:42:39.083Z,99.99
2023-05-06T06:43:39.064Z,99.99
2023-05-06T06:44:39.055Z,99.99
2023-05-06T06:45:39.089Z,99.99
2023-05-06T06:46:39.043Z,99.99
2023-05-06T06:47:39.036Z,99.99
2023-05-06T06:48:39.007Z,99.99
2023-05-06T06:49:39.006Z,99.99
2023-05-06T06:50:38.994Z,99.99
2023-05-06T06:51:38.992Z,99.99
2023-05-06T06:52:38.961Z,99.99
2023-05-06T06:53:38.957Z,99.99
2023-05-06T06:54:38.944Z,99.99
2023-05-06T06:55:38.937Z,99.99
2023-05-06T06:56:38.931Z,99.99
2023-05-06T06:57:38.916Z,99.99
2023-05-06T06:58:38.890Z,99.99
2023-05-06T06:59:38.898Z,99.99
2023-05-06T07:00:38.896Z,99.99
2023-05-06T07:01:38.970Z,99.99
2023-05-06T07:02:38.887Z,99.99
2023-05-06T07:03:38.853Z,99.99
2023-05-06T07:04:39.029Z,99.99
2023-05-06T07:05:38.850Z,99.99
2023-05-06T07:06:38.832Z,99.99
2023-05-06T07:07:38.801Z,99.99
2023-05-06T07:08:38.816Z,99.99
2023-05-06T07:09:40.100Z,99.99
2023-05-06T07:10:38.789Z,99.99
2023-05-06T07:11:38.755Z,99.99
2023-05-06T07:12:38.831Z,99.99
2023-05-06T07:13:38.745Z,99.99
2023-05-06T07:14:38.733Z,99.99
2023-05-06T07:15:38.734Z,99.99
2023-05-06T07:16:38.724Z,99.99
2023-05-06T07:17:38.743Z,99.99
2023-05-06T07:18:38.673Z,99.99
2023-05-06T07:19:38.686Z,99.99
2023-05-06T07:20:38.664Z,99.99
2023-05-06T07:21:38.647Z,99.99
2023-05-06T07:22:38.631Z,99.99
2023-05-06T07:23:38.635Z,99.99
2023-05-06T07:24:38.618Z,99.99
2023-05-06T07:25:38.622Z,99.99
2023-05-06T07:26:38.608Z,99.99
2023-05-06T07:27:38.576Z,99.99
2023-05-06T07:28:38.576Z,99.99
2023-05-06T07:29:38.572Z,99.99
2023-05-06T07:30:38.574Z,99.99
2023-05-06T07:31:38.675Z,99.99
2023-05-06T07:32:38.592Z,99.99
2023-05-06T07:33:38.548Z,99.99
2023-05-06T07:34:38.547Z,99.99
2023-05-06T07:35:38.530Z,99.99
2023-05-06T07:36:40.028Z,99.99
2023-05-06T07:37:38.488Z,99.99
2023-05-06T07:38:38.465Z,99.99
2023-05-06T07:39:38.456Z,99.91
2023-05-06T07:40:38.433Z,99.99
2023-05-06T07:41:38.425Z,99.99
2023-05-06T07:42:38.767Z,99.99
2023-05-06T07:43:38.414Z,99.99
2023-05-06T07:44:38.392Z,99.97
2023-05-06T07:45:38.388Z,99.31
2023-05-06T07:46:38.540Z,99.11
2023-05-06T07:47:38.442Z,98.30
2023-05-06T07:48:38.356Z,98.09
2023-05-06T07:49:38.339Z,97.93
2023-05-06T07:50:38.324Z,98.03
2023-05-06T07:51:38.314Z,97.93
2023-05-06T07:52:38.312Z,97.93
2023-05-06T07:53:38.290Z,98.24
2023-05-06T07:54:38.276Z,98.24
2023-05-06T07:55:38.267Z,98.50
2023-05-06T07:56:38.255Z,98.39
2023-05-06T07:57:38.267Z,98.80
2023-05-06T07:58:38.244Z,97.89
2023-05-06T07:59:38.224Z,97.78
2023-05-06T08:00:38.210Z,97.84
2023-05-06T08:01:38.218Z,97.53
2023-05-06T08:02:38.287Z,97.19
2023-05-06T08:03:38.395Z,96.62
2023-05-06T08:04:38.193Z,96.47
2023-05-06T08:05:38.161Z,96.27
2023-05-06T08:06:38.158Z,96.02
2023-05-06T08:07:38.136Z,94.90
2023-05-06T08:08:38.122Z,94.50
2023-05-06T08:09:38.141Z,94.15
2023-05-06T08:10:38.097Z,94.35
2023-05-06T08:11:38.102Z,93.84
2023-05-06T08:12:38.300Z,93.99
2023-05-06T08:13:38.075Z,94.90
2023-05-06T08:14:38.062Z,94.76
2023-05-06T08:15:38.058Z,94.66
2023-05-06T08:16:38.114Z,94.20
2023-05-06T08:17:38.076Z,94.50
2023-05-06T08:18:38.009Z,94.40
2023-05-06T08:19:37.998Z,94.56
2023-05-06T08:20:38.001Z,93.54
2023-05-06T08:21:38.000Z,92.32
2023-05-06T08:22:37.967Z,93.44
2023-05-06T08:23:37.967Z,92.68
2023-05-06T08:24:37.947Z,92.54
2023-05-06T08:25:37.956Z,92.07
2023-05-06T08:26:37.928Z,92.48
2023-05-06T08:27:37.918Z,92.74
2023-05-06T08:28:37.907Z,91.73
2023-05-06T08:29:37.907Z,92.09
2023-05-06T08:30:37.896Z,91.78
2023-05-06T08:31:37.933Z,91.24
2023-05-06T08:32:37.894Z,90.42
2023-05-06T08:33:37.857Z,89.45
2023-05-06T08:34:37.851Z,90.16
2023-05-06T08:35:37.848Z,90.88
2023-05-06T08:36:37.827Z,90.88
2023-05-06T08:37:37.807Z,90.92
2023-05-06T08:38:37.794Z,90.25
2023-05-06T08:39:37.792Z,90.51
2023-05-06T08:40:37.771Z,91.02
2023-05-06T08:41:37.765Z,91.63
2023-05-06T08:42:37.749Z,91.12
2023-05-06T08:43:37.740Z,90.92
2023-05-06T08:44:37.736Z,90.55
2023-05-06T08:45:37.746Z,91.93
2023-05-06T08:46:37.701Z,91.42
2023-05-06T08:47:37.749Z,91.08
2023-05-06T08:48:37.692Z,91.03
2023-05-06T08:49:37.684Z,89.61
2023-05-06T08:50:37.664Z,88.80
2023-05-06T08:51:37.650Z,88.66
2023-05-06T08:52:37.639Z,88.72
2023-05-06T08:53:37.643Z,88.27
2023-05-06T08:54:37.613Z,87.16
2023-05-06T08:55:37.644Z,87.46
2023-05-06T08:56:37.612Z,87.52
2023-05-06T08:57:37.588Z,86.10
2023-05-06T08:58:37.578Z,87.52
2023-05-06T08:59:37.561Z,87.05
2023-05-06T09:00:37.545Z,86.73
2023-05-06T09:01:37.692Z,87.81
2023-05-06T09:02:38.390Z,87.71
2023-05-06T09:03:37.540Z,87.87
2023-05-06T09:04:37.501Z,88.84
2023-05-06T09:05:37.494Z,87.93
2023-05-06T09:06:37.515Z,85.60
2023-05-06T09:07:37.491Z,85.03
2023-05-06T09:08:37.462Z,85.33
2023-05-06T09:09:37.462Z,86.25
2023-05-06T09:10:37.440Z,86.35
2023-05-06T09:11:37.432Z,86.19
2023-05-06T09:12:37.433Z,86.49
2023-05-06T09:13:37.406Z,86.49
2023-05-06T09:14:37.387Z,87.81
2023-05-06T09:15:37.383Z,87.51
2023-05-06T09:16:37.408Z,87.40
2023-05-06T09:17:37.422Z,87.45
2023-05-06T09:18:37.354Z,87.14
2023-05-06T09:19:37.339Z,86.83
2023-05-06T09:20:37.324Z,87.40
2023-05-06T09:21:37.331Z,87.40
2023-05-06T09:22:37.304Z,86.69
2023-05-06T09:23:37.321Z,87.04
2023-05-06T09:24:37.281Z,87.34
2023-05-06T09:25:37.274Z,87.91
2023-05-06T09:26:37.265Z,87.26
2023-05-06T09:27:37.255Z,87.99
2023-05-06T09:28:37.244Z,85.93
2023-05-06T09:29:37.234Z,83.13
2023-05-06T09:30:37.222Z,85.25
2023-05-06T09:31:37.377Z,85.96
2023-05-06T09:32:40.050Z,85.30
2023-05-06T09:33:37.183Z,85.74
2023-05-06T09:34:37.178Z,86.05
2023-05-06T09:35:37.178Z,86.65
2023-05-06T09:36:37.151Z,86.21
2023-05-06T09:37:37.134Z,85.36
2023-05-06T09:38:37.132Z,85.72
2023-05-06T09:39:37.122Z,84.61
2023-05-06T09:40:37.115Z,84.55
2023-05-06T09:41:37.093Z,85.66
2023-05-06T09:42:37.085Z,84.61
2023-05-06T09:43:37.068Z,85.02
2023-05-06T09:44:37.078Z,84.85
2023-05-06T09:45:37.075Z,84.75
2023-05-06T09:46:37.093Z,84.85
2023-05-06T09:47:37.092Z,84.45
2023-05-06T09:48:37.017Z,85.46
2023-05-06T09:49:37.022Z,85.11
2023-05-06T09:50:36.997Z,84.51
2023-05-06T09:51:36.980Z,84.61
2023-05-06T09:52:36.988Z,84.41
2023-05-06T09:53:36.976Z,84.55
2023-05-06T09:54:36.979Z,85.36
2023-05-06T09:55:36.947Z,85.70
2023-05-06T09:56:36.985Z,86.10
2023-05-06T09:57:37.073Z,86.65
2023-05-06T09:58:36.983Z,87.42
2023-05-06T09:59:36.916Z,87.99
2023-05-06T10:00:36.893Z,86.63
2023-05-06T10:01:37.827Z,86.02
2023-05-06T10:02:37.082Z,84.91
2023-05-06T10:03:36.986Z,85.22
2023-05-06T10:04:37.090Z,85.05
2023-05-06T10:05:36.861Z,85.25
2023-05-06T10:06:36.936Z,84.75
2023-05-06T10:07:36.819Z,85.93
2023-05-06T10:08:36.798Z,85.88
2023-05-06T10:09:36.787Z,84.87
2023-05-06T10:10:36.769Z,83.96
2023-05-06T10:11:36.971Z,83.66
2023-05-06T10:12:36.804Z,83.56
2023-05-06T10:13:36.749Z,83.29
2023-05-06T10:14:36.725Z,82.62
2023-05-06T10:15:36.718Z,83.64
2023-05-06T10:16:36.897Z,85.02
2023-05-06T10:17:36.740Z,85.42
2023-05-06T10:18:36.705Z,85.38
2023-05-06T10:19:36.669Z,83.56
2023-05-06T10:20:36.667Z,83.15
2023-05-06T10:21:36.660Z,82.55
2023-05-06T10:22:36.661Z,83.15
2023-05-06T10:23:36.635Z,83.26
2023-05-06T10:24:36.614Z,84.23
2023-05-06T10:25:36.626Z,83.92
2023-05-06T10:26:36.590Z,82.37
2023-05-06T10:27:36.661Z,81.70
2023-05-06T10:28:36.567Z,81.50
2023-05-06T10:29:36.624Z,82.51
2023-05-06T10:30:36.547Z,83.62
2023-05-06T10:31:36.633Z,84.53
2023-05-06T10:32:36.596Z,84.12
2023-05-06T10:33:36.513Z,84.12
2023-05-06T10:34:36.493Z,84.39
2023-05-06T10:35:36.490Z,83.88
2023-05-06T10:36:36.488Z,83.24
2023-05-06T10:37:36.470Z,83.14
2023-05-06T10:38:36.451Z,82.53
2023-05-06T10:39:36.448Z,83.34
2023-05-06T10:40:36.439Z,83.40
2023-05-06T10:41:36.433Z,83.10
2023-05-06T10:42:36.404Z,81.85
2023-05-06T10:43:36.404Z,81.75
2023-05-06T10:44:36.382Z,81.85
2023-05-06T10:45:36.429Z,80.33
2023-05-06T10:46:36.370Z,80.74
2023-05-06T10:47:36.372Z,81.04
2023-05-06T10:48:36.341Z,81.24
2023-05-06T10:49:36.334Z,80.33
2023-05-06T10:50:36.334Z,80.54
2023-05-06T10:51:36.399Z,80.13
2023-05-06T10:52:36.289Z,78.66
2023-05-06T10:53:36.321Z,78.86
2023-05-06T10:54:36.268Z,80.07
2023-05-06T10:55:36.274Z,80.64
2023-05-06T10:56:36.299Z,80.44
2023-05-06T10:57:36.240Z,81.24
2023-05-06T10:58:36.231Z,81.21
2023-05-06T10:59:36.216Z,81.10
2023-05-06T11:00:36.206Z,79.96
2023-05-06T11:01:36.387Z,78.89
2023-05-06T11:02:36.248Z,79.29
2023-05-06T11:03:36.271Z,79.39
2023-05-06T11:04:36.173Z,78.85
2023-05-06T11:05:36.163Z,77.98
2023-05-06T11:06:36.138Z,77.88
2023-05-06T11:07:36.131Z,77.68
2023-05-06T11:08:36.114Z,77.98
2023-05-06T11:09:36.120Z,77.68
2023-05-06T11:10:36.094Z,78.05
2023-05-06T11:11:36.090Z,77.34
2023-05-06T11:12:36.128Z,77.04
2023-05-06T11:13:36.066Z,77.34
2023-05-06T11:14:36.104Z,77.00
2023-05-06T11:15:36.044Z,76.03
2023-05-06T11:16:38.162Z,76.23
2023-05-06T11:17:36.044Z,76.43
2023-05-06T11:18:36.018Z,77.24
2023-05-06T11:19:36.013Z,77.04
2023-05-06T11:20:35.983Z,76.20
2023-05-06T11:21:35.980Z,74.08
2023-05-06T11:22:35.967Z,73.72
2023-05-06T11:23:35.967Z,73.92
2023-05-06T11:24:35.941Z,73.61
2023-05-06T11:25:35.935Z,73.61
2023-05-06T11:26:35.919Z,72.91
2023-05-06T11:27:35.911Z,74.52
2023-05-06T11:28:35.906Z,76.34
2023-05-06T11:29:35.895Z,75.33
2023-05-06T11:30:35.873Z,74.52
2023-05-06T11:31:35.909Z,75.53
2023-05-06T11:32:35.873Z,75.73
2023-05-06T11:33:35.856Z,75.19
2023-05-06T11:34:35.831Z,74.58
2023-05-06T11:35:35.839Z,74.15
2023-05-06T11:36:35.809Z,72.77
2023-05-06T11:37:35.870Z,72.44
2023-05-06T11:38:35.788Z,71.16
2023-05-06T11:39:40.341Z,70.96
2023-05-06T11:40:35.769Z,71.56
2023-05-06T11:41:35.761Z,72.34
2023-05-06T11:42:35.754Z,71.33
2023-05-06T11:43:35.756Z,71.77
2023-05-06T11:44:35.762Z,71.97
2023-05-06T11:45:35.714Z,72.20
2023-05-06T11:46:35.728Z,73.08
2023-05-06T11:47:35.757Z,73.58
2023-05-06T11:48:35.680Z,74.29
2023-05-06T11:49:36.875Z,73.95
2023-05-06T11:50:35.662Z,73.04
2023-05-06T11:51:35.671Z,73.91
2023-05-06T11:52:35.635Z,72.87
2023-05-06T11:53:35.630Z,72.27
2023-05-06T11:54:35.638Z,71.43
2023-05-06T11:55:35.604Z,69.96
2023-05-06T11:56:35.608Z,69.76
2023-05-06T11:57:35.583Z,68.98
2023-05-06T11:58:35.588Z,69.72
2023-05-06T11:59:35.560Z,70.73
2023-05-06T12:00:35.557Z,71.23
2023-05-06T12:01:35.546Z,71.30
2023-05-06T12:02:35.624Z,71.30
2023-05-06T12:03:35.644Z,70.39
2023-05-06T12:04:35.580Z,70.39
2023-05-06T12:05:35.510Z,69.38
2023-05-06T12:06:35.498Z,70.26
2023-05-06T12:07:35.469Z,69.38
2023-05-06T12:08:35.464Z,70.79
2023-05-06T12:09:35.446Z,71.00
2023-05-06T12:10:35.440Z,71.50
2023-05-06T12:11:35.429Z,71.80
2023-05-06T12:12:35.436Z,71.77
2023-05-06T12:13:35.409Z,71.06
2023-05-06T12:14:35.416Z,70.06
2023-05-06T12:15:35.388Z,69.76
2023-05-06T12:16:35.427Z,70.86
2023-05-06T12:17:35.371Z,70.32
2023-05-06T12:18:35.349Z,69.22
2023-05-06T12:19:35.341Z,69.02
2023-05-06T12:20:35.336Z,69.12
2023-05-06T12:21:35.311Z,69.99
2023-05-06T12:22:35.296Z,69.29
2023-05-06T12:23:35.320Z,66.78
2023-05-06T12:24:35.285Z,66.38
2023-05-06T12:25:35.294Z,67.58
2023-05-06T12:26:35.258Z,68.59
2023-05-06T12:27:35.285Z,68.18
2023-05-06T12:28:35.259Z,67.58
2023-05-06T12:29:35.290Z,67.88
2023-05-06T12:30:35.214Z,68.38
2023-05-06T12:31:35.271Z,67.95
2023-05-06T12:32:35.220Z,69.85
2023-05-06T12:33:35.186Z,68.35
2023-05-06T12:34:35.172Z,66.85
2023-05-06T12:35:35.175Z,67.25
2023-05-06T12:36:35.148Z,66.82
2023-05-06T12:37:35.132Z,65.84
2023-05-06T12:38:35.138Z,65.84
2023-05-06T12:39:35.123Z,65.34
2023-05-06T12:40:35.132Z,64.97
2023-05-06T12:41:35.092Z,65.88
2023-05-06T12:42:35.082Z,67.08
2023-05-06T12:43:35.083Z,66.78
2023-05-06T12:44:35.099Z,66.95
2023-05-06T12:45:35.103Z,66.38
2023-05-06T12:46:35.066Z,65.67
2023-05-06T12:47:35.078Z,66.67
2023-05-06T12:48:35.042Z,67.75
2023-05-06T12:49:35.000Z,66.14
2023-05-06T12:50:34.998Z,66.64
2023-05-06T12:51:34.981Z,66.55
2023-05-06T12:52:34.992Z,66.64